Time;durP1;ratioP1;P1;durP2;ratioP2;P2;SDS_P1;SDS_P2;PMS_P1;PMS_P2;Temp;Humidity;BMP_temperature;BMP_pressure;BME280_temperature;BME280_humidity;BME280_pressure;Samples;Min_cycle;Max_cycle;Signal;HPM_P1;HPM_P2
2020/12/03 00:02:03;;;;;;;11.98;6.63;;;4.50;99.90;;;;;;5069153;28;20109;-46
2020/12/03 00:04:29;;;;;;;12.57;6.38;;;4.50;99.90;;;;;;5067963;28;20017;-46
2020/12/03 00:07:01;;;;;;;10.80;6.43;;;4.40;99.90;;;;;;5067981;28;20024;-46
2020/12/03 00:09:27;;;;;;;11.27;6.55;;;4.40;99.90;;;;;;5067480;28;20021;-48
2020/12/03 00:11:57;;;;;;;9.40;6.32;;;4.40;99.90;;;;;;5067352;28;20550;-46
2020/12/03 00:14:23;;;;;;;8.82;5.40;;;4.50;99.90;;;;;;5066869;28;20396;-50
2020/12/03 00:16:50;;;;;;;10.13;5.93;;;4.50;99.90;;;;;;5067774;28;20028;-48
2020/12/03 00:19:19;;;;;;;9.73;5.63;;;4.60;99.90;;;;;;5067484;28;20025;-49
2020/12/03 00:21:53;;;;;;;7.68;4.75;;;4.60;99.90;;;;;;5067481;28;20070;-47
2020/12/03 00:24:26;;;;;;;8.30;4.75;;;4.60;99.90;;;;;;5067460;28;20057;-50
2020/12/03 00:26:53;;;;;;;7.53;5.07;;;4.60;99.90;;;;;;5067753;28;20028;-48
2020/12/03 00:29:19;;;;;;;9.63;5.15;;;4.70;99.90;;;;;;5067367;28;20398;-49
2020/12/03 00:31:47;;;;;;;9.88;5.20;;;4.80;99.90;;;;;;5067114;28;20032;-48
2020/12/03 00:34:13;;;;;;;7.72;4.80;;;4.70;99.90;;;;;;5066797;28;20486;-48
2020/12/03 00:36:39;;;;;;;7.53;4.60;;;4.70;99.90;;;;;;5067482;28;20040;-48
2020/12/03 00:39:08;;;;;;;7.68;4.95;;;4.60;99.90;;;;;;5067355;28;20293;-48
2020/12/03 00:41:34;;;;;;;6.88;4.40;;;4.70;99.90;;;;;;5067099;28;20066;-49
2020/12/03 00:44:00;;;;;;;7.57;4.20;;;4.60;99.90;;;;;;5067968;28;20032;-48
2020/12/03 00:46:30;;;;;;;6.53;4.35;;;4.60;99.90;;;;;;5067242;28;20020;-51
2020/12/03 00:48:56;;;;;;;9.35;4.72;;;4.60;99.90;;;;;;5066993;28;20036;-49
2020/12/03 00:51:22;;;;;;;7.43;4.43;;;4.70;99.90;;;;;;5066127;28;20028;-49
2020/12/03 00:53:48;;;;;;;8.40;4.82;;;4.80;99.90;;;;;;5066471;28;20089;-47
2020/12/03 00:56:14;;;;;;;7.22;4.28;;;4.80;99.90;;;;;;5066765;28;20025;-47
2020/12/03 00:58:39;;;;;;;7.47;4.43;;;4.70;99.90;;;;;;5067484;28;20544;-46
2020/12/03 01:01:06;;;;;;;7.03;4.55;;;4.70;99.90;;;;;;5065986;28;20084;-45
2020/12/03 01:03:31;;;;;;;7.10;4.68;;;4.70;99.90;;;;;;5066999;28;20085;-46
2020/12/03 01:05:58;;;;;;;6.47;3.95;;;4.70;99.90;;;;;;5066670;28;20020;-46
2020/12/03 01:08:23;;;;;;;6.03;4.15;;;4.70;99.90;;;;;;5073266;28;20040;-46
2020/12/03 01:10:49;;;;;;;6.88;4.45;;;4.60;99.90;;;;;;5087078;28;20554;-46
2020/12/03 01:13:15;;;;;;;7.35;4.57;;;4.70;99.90;;;;;;5085946;28;20035;-47
2020/12/03 01:15:42;;;;;;;8.40;5.30;;;4.80;99.90;;;;;;5084182;28;20012;-46
2020/12/03 01:18:07;;;;;;;8.15;4.70;;;4.80;99.90;;;;;;5066683;28;20020;-47
2020/12/03 01:20:34;;;;;;;8.10;4.57;;;4.90;99.90;;;;;;5083293;28;20042;-47
2020/12/03 01:22:59;;;;;;;8.52;5.32;;;4.80;99.90;;;;;;5087747;28;20099;-46
2020/12/03 01:25:25;;;;;;;7.65;4.40;;;4.90;99.90;;;;;;5086218;28;20112;-48
2020/12/03 01:27:52;;;;;;;9.40;6.03;;;4.90;99.90;;;;;;5066536;28;20119;-46
2020/12/03 01:30:19;;;;;;;8.25;5.65;;;4.90;99.90;;;;;;5066080;28;20466;-46
2020/12/03 01:32:45;;;;;;;7.07;4.60;;;4.90;99.90;;;;;;5064902;28;20031;-47
2020/12/03 01:35:12;;;;;;;7.55;4.40;;;4.70;99.90;;;;;;5066082;28;20021;-50
2020/12/03 01:37:38;;;;;;;8.98;5.25;;;4.80;99.90;;;;;;5066595;28;20029;-48
2020/12/03 01:40:09;;;;;;;7.85;4.90;;;4.70;99.90;;;;;;5066221;28;20040;-45
2020/12/03 01:42:38;;;;;;;12.50;6.25;;;4.70;99.90;;;;;;5066108;28;20106;-47
2020/12/03 01:45:43;;;;;;;9.70;5.65;;;4.70;99.90;;;;;;5064290;28;20032;-45
2020/12/03 01:48:27;;;;;;;9.43;5.93;;;4.80;99.90;;;;;;5065757;28;20047;-46
2020/12/03 01:50:52;;;;;;;8.15;5.38;;;4.80;99.90;;;;;;5066815;28;20143;-46
2020/12/03 01:53:19;;;;;;;8.65;5.07;;;4.80;99.90;;;;;;5065562;28;20115;-46
2020/12/03 01:55:46;;;;;;;9.13;5.50;;;4.80;99.90;;;;;;5065198;28;20102;-47
2020/12/03 01:58:23;;;;;;;9.20;4.95;;;4.80;99.90;;;;;;5065864;28;20032;-46
2020/12/03 02:00:48;;;;;;;10.68;5.32;;;4.70;99.90;;;;;;5065891;28;20442;-48
2020/12/03 02:03:15;;;;;;;10.32;5.85;;;4.80;99.90;;;;;;5064985;28;20029;-47
2020/12/03 02:05:41;;;;;;;9.73;5.90;;;4.90;99.90;;;;;;5065097;28;20029;-46
2020/12/03 02:08:07;;;;;;;10.52;6.03;;;4.90;99.90;;;;;;5065558;28;20395;-45
2020/12/03 02:10:33;;;;;;;11.75;7.47;;;4.90;99.90;;;;;;5083595;28;20058;-48
2020/12/03 02:12:58;;;;;;;11.70;7.43;;;4.90;99.90;;;;;;5084099;28;20068;-49
2020/12/03 02:15:24;;;;;;;11.82;6.68;;;4.90;99.90;;;;;;5086451;28;20553;-45
2020/12/03 02:17:50;;;;;;;10.57;6.30;;;4.90;99.90;;;;;;5087138;28;20067;-46
2020/12/03 02:20:19;;;;;;;10.90;6.63;;;4.80;99.90;;;;;;5087081;28;20464;-45
2020/12/03 02:22:45;;;;;;;8.98;5.68;;;4.80;99.90;;;;;;5076780;28;20039;-47
2020/12/03 02:25:12;;;;;;;8.93;5.70;;;4.90;99.90;;;;;;5066744;28;20025;-48
2020/12/03 02:27:39;;;;;;;9.52;6.53;;;4.90;99.90;;;;;;5066884;28;20022;-46
2020/12/03 02:30:10;;;;;;;8.93;5.35;;;4.90;99.90;;;;;;5066762;28;20502;-47
2020/12/03 02:32:36;;;;;;;8.32;5.07;;;4.80;99.90;;;;;;5065778;28;20045;-47
2020/12/03 02:35:05;;;;;;;8.25;5.50;;;4.90;99.90;;;;;;5067436;28;20109;-49
2020/12/03 02:37:31;;;;;;;9.50;5.55;;;4.90;99.90;;;;;;5067278;28;20025;-49
2020/12/03 02:39:56;;;;;;;8.88;5.25;;;4.90;99.90;;;;;;5066658;28;20033;-46
2020/12/03 02:42:22;;;;;;;8.02;5.20;;;4.80;99.90;;;;;;5070061;28;20024;-49
2020/12/03 02:44:49;;;;;;;9.15;5.90;;;4.80;99.90;;;;;;5087148;28;20057;-50
2020/12/03 02:47:18;;;;;;;8.48;5.50;;;4.80;99.90;;;;;;5086323;28;20040;-49
2020/12/03 02:49:44;;;;;;;10.30;6.32;;;4.80;99.90;;;;;;5086784;28;20460;-50
2020/12/03 02:52:12;;;;;;;8.90;5.43;;;4.80;99.90;;;;;;5085510;28;20029;-49
2020/12/03 02:54:40;;;;;;;10.27;5.80;;;4.70;99.90;;;;;;5080069;28;20097;-50
2020/12/03 02:57:06;;;;;;;8.82;5.60;;;4.70;99.90;;;;;;5066060;28;20024;-47
2020/12/03 02:59:32;;;;;;;8.80;5.50;;;4.70;99.90;;;;;;5066457;28;20103;-48
2020/12/03 03:01:58;;;;;;;9.05;5.55;;;4.80;99.90;;;;;;5065736;28;20029;-47
2020/12/03 03:04:25;;;;;;;8.40;5.57;;;4.80;99.90;;;;;;5066020;28;20046;-48
2020/12/03 03:06:53;;;;;;;8.70;5.57;;;4.80;99.90;;;;;;5066367;28;20020;-49
2020/12/03 03:09:20;;;;;;;9.02;5.60;;;4.80;99.90;;;;;;5065639;28;20028;-46
2020/12/03 03:11:46;;;;;;;8.57;4.93;;;4.80;99.90;;;;;;5065998;28;20029;-47
2020/12/03 03:14:12;;;;;;;8.80;5.45;;;4.80;99.90;;;;;;5065833;28;20517;-46
2020/12/03 03:16:38;;;;;;;9.40;6.00;;;4.90;99.90;;;;;;5065393;28;20043;-50
2020/12/03 03:19:03;;;;;;;8.27;5.78;;;4.90;99.90;;;;;;5066311;28;20439;-48
2020/12/03 03:21:30;;;;;;;11.38;6.47;;;4.90;99.90;;;;;;5066423;28;20082;-49
2020/12/03 03:23:56;;;;;;;12.25;7.50;;;5.00;99.90;;;;;;5065732;28;20055;-47
2020/12/03 03:26:21;;;;;;;11.65;6.95;;;4.90;99.90;;;;;;5065517;28;20121;-46
2020/12/03 03:28:48;;;;;;;13.90;7.90;;;4.90;99.90;;;;;;5065378;28;20085;-48
2020/12/03 03:31:14;;;;;;;12.73;7.75;;;4.80;99.90;;;;;;5065565;28;20480;-50
2020/12/03 03:33:39;;;;;;;14.73;7.88;;;4.90;99.90;;;;;;5069309;28;20032;-45
2020/12/03 03:36:05;;;;;;;12.20;6.63;;;4.90;99.90;;;;;;5084539;28;20024;-46
2020/12/03 03:38:31;;;;;;;12.00;7.47;;;4.80;99.90;;;;;;5086827;28;20024;-45
2020/12/03 03:40:57;;;;;;;13.35;6.90;;;5.00;99.90;;;;;;5072080;28;20024;-46
2020/12/03 03:43:22;;;;;;;11.52;7.28;;;4.90;99.90;;;;;;5065799;28;20040;-46
2020/12/03 03:45:48;;;;;;;12.48;6.80;;;4.90;99.90;;;;;;5065826;28;20680;-46
2020/12/03 03:48:14;;;;;;;11.40;7.25;;;5.00;99.90;;;;;;5065332;28;20083;-47
2020/12/03 03:50:41;;;;;;;12.48;6.97;;;5.00;99.90;;;;;;5065985;28;20025;-46
2020/12/03 03:53:06;;;;;;;10.82;6.50;;;4.90;99.90;;;;;;5079681;28;20891;-46
2020/12/03 03:55:32;;;;;;;11.93;7.38;;;4.90;99.90;;;;;;5086846;28;20016;-47
2020/12/03 03:57:58;;;;;;;11.57;6.78;;;4.90;99.90;;;;;;5086555;28;20654;-47
2020/12/03 04:00:24;;;;;;;11.18;7.15;;;5.00;99.90;;;;;;5076278;28;20123;-47
2020/12/03 04:02:49;;;;;;;12.60;7.13;;;5.00;99.90;;;;;;5065784;28;20040;-47
2020/12/03 04:05:16;;;;;;;12.05;6.88;;;5.00;99.90;;;;;;5065526;28;20031;-46
2020/12/03 04:07:44;;;;;;;13.95;7.97;;;4.90;99.90;;;;;;5065683;28;20029;-46
2020/12/03 04:10:10;;;;;;;13.05;7.97;;;4.80;99.90;;;;;;5071765;28;20023;-46
2020/12/03 04:12:38;;;;;;;13.55;7.28;;;4.90;99.90;;;;;;5085723;28;20060;-46
2020/12/03 04:15:05;;;;;;;15.27;7.32;;;4.90;99.90;;;;;;5085419;28;20107;-47
2020/12/03 04:17:30;;;;;;;11.48;7.60;;;5.00;99.90;;;;;;5086263;28;20115;-47
2020/12/03 04:19:56;;;;;;;14.50;8.57;;;4.90;99.90;;;;;;5065789;28;20116;-46
2020/12/03 04:22:23;;;;;;;18.13;10.55;;;5.00;99.90;;;;;;5065554;28;20039;-46
2020/12/03 04:24:49;;;;;;;16.27;9.65;;;5.00;99.90;;;;;;5065713;28;20058;-46
2020/12/03 04:27:16;;;;;;;13.75;8.10;;;5.00;99.90;;;;;;5077374;28;20035;-50
2020/12/03 04:29:42;;;;;;;13.05;7.70;;;4.90;99.90;;;;;;5088730;28;20024;-50
2020/12/03 04:32:07;;;;;;;13.05;8.00;;;5.00;99.90;;;;;;5088996;28;20036;-49
2020/12/03 04:34:34;;;;;;;13.48;8.38;;;4.90;99.90;;;;;;5089399;28;20028;-46
2020/12/03 04:37:00;;;;;;;13.07;8.23;;;4.80;99.90;;;;;;5090031;28;20040;-46
2020/12/03 04:39:25;;;;;;;11.02;7.30;;;4.60;99.90;;;;;;5088678;28;20059;-46
2020/12/03 04:41:51;;;;;;;12.57;7.78;;;4.60;99.90;;;;;;5069640;28;20103;-46
2020/12/03 04:44:38;;;;;;;14.65;8.02;;;4.70;99.90;;;;;;5067014;28;20028;-46
2020/12/03 04:47:34;;;;;;;12.70;7.88;;;4.60;99.90;;;;;;5079971;28;20454;-48
2020/12/03 04:50:33;;;;;;;11.60;7.57;;;4.70;99.90;;;;;;5089762;28;20067;-48
2020/12/03 04:53:34;;;;;;;10.13;6.38;;;4.80;99.90;;;;;;5069482;28;20034;-48
2020/12/03 04:56:03;;;;;;;11.95;6.07;;;4.90;99.90;;;;;;5036436;28;20037;-49
2020/12/03 04:59:04;;;;;;;8.77;5.65;;;4.80;99.90;;;;;;5069315;28;20036;-47
2020/12/03 05:01:57;;;;;;;9.07;6.00;;;4.80;99.90;;;;;;5014191;28;20053;-47
2020/12/03 05:04:29;;;;;;;10.75;5.82;;;4.80;99.90;;;;;;5067249;28;20516;-49
2020/12/03 05:07:07;;;;;;;11.82;6.68;;;4.80;99.90;;;;;;5068567;28;20021;-49
2020/12/03 05:09:55;;;;;;;12.40;7.05;;;5.00;99.90;;;;;;5067610;28;20519;-46
2020/12/03 05:12:26;;;;;;;13.05;6.97;;;4.90;99.90;;;;;;5071507;28;20568;-48
2020/12/03 05:14:54;;;;;;;11.00;6.63;;;5.00;99.90;;;;;;5068073;28;20025;-46
2020/12/03 05:17:42;;;;;;;9.88;6.32;;;5.00;99.90;;;;;;5067419;28;20051;-47
2020/12/03 05:20:11;;;;;;;10.93;6.60;;;5.00;99.90;;;;;;5068197;28;20474;-46
2020/12/03 05:22:38;;;;;;;10.85;7.40;;;5.00;99.90;;;;;;5068418;28;20103;-50
2020/12/03 05:25:13;;;;;;;11.77;7.22;;;5.00;99.90;;;;;;5068043;28;20032;-46
2020/12/03 05:27:40;;;;;;;14.05;7.68;;;4.90;99.90;;;;;;5068272;28;20390;-46
2020/12/03 05:30:07;;;;;;;12.52;7.82;;;4.90;99.90;;;;;;5067505;28;20029;-47
2020/12/03 05:32:33;;;;;;;14.68;8.38;;;5.00;99.90;;;;;;5068341;28;20028;-50
2020/12/03 05:34:59;;;;;;;24.80;13.90;;;4.90;99.90;;;;;;5068785;28;20021;-45
2020/12/03 05:37:26;;;;;;;22.40;11.98;;;4.80;99.90;;;;;;5067226;28;20088;-49
2020/12/03 05:39:55;;;;;;;17.50;9.75;;;4.70;99.90;;;;;;5067508;28;20036;-48
2020/12/03 05:42:35;;;;;;;15.07;8.25;;;4.70;99.90;;;;;;5067807;28;20092;-46
2020/12/03 05:45:15;;;;;;;12.45;7.28;;;4.80;99.90;;;;;;5068296;28;20457;-46
2020/12/03 05:47:46;;;;;;;14.02;7.32;;;4.90;99.90;;;;;;5067904;28;20017;-49
2020/12/03 05:50:29;;;;;;;12.57;7.18;;;4.90;99.90;;;;;;5067663;28;20024;-48
2020/12/03 05:53:12;;;;;;;12.57;7.20;;;4.90;99.90;;;;;;5067500;28;20020;-50
2020/12/03 05:55:38;;;;;;;11.32;7.25;;;5.00;99.90;;;;;;5067582;28;20251;-46
2020/12/03 05:58:28;;;;;;;11.63;6.90;;;5.00;99.90;;;;;;5067567;28;20425;-48
2020/12/03 06:01:06;;;;;;;10.18;6.85;;;4.90;99.90;;;;;;5067326;28;20062;-48
2020/12/03 06:03:43;;;;;;;9.88;6.32;;;5.00;99.90;;;;;;5067755;28;20509;-46
2020/12/03 06:06:48;;;;;;;11.63;6.47;;;5.00;99.90;;;;;;5067222;28;20403;-46
2020/12/03 06:09:22;;;;;;;12.35;7.00;;;5.00;99.90;;;;;;5066842;28;20124;-50
2020/12/03 06:12:10;;;;;;;10.93;7.28;;;4.90;99.90;;;;;;5066888;28;20518;-48
2020/12/03 06:15:00;;;;;;;10.27;6.53;;;4.90;99.90;;;;;;5066932;28;20391;-46
2020/12/03 06:17:41;;;;;;;11.82;6.88;;;4.90;99.90;;;;;;5067016;28;20017;-47
2020/12/03 06:20:34;;;;;;;11.60;7.00;;;4.90;99.90;;;;;;5085624;28;20032;-50
2020/12/03 06:23:38;;;;;;;11.85;7.20;;;5.00;99.90;;;;;;5088087;28;20034;-45
2020/12/03 06:26:19;;;;;;;10.32;6.18;;;5.00;99.90;;;;;;5087289;28;20864;-48
2020/12/03 06:29:16;;;;;;;7.68;5.10;;;4.80;99.90;;;;;;5074622;28;20509;-47
2020/12/03 06:31:47;;;;;;;10.60;6.07;;;4.70;99.90;;;;;;5066842;28;20039;-50
2020/12/03 06:34:21;;;;;;;9.57;6.05;;;4.80;99.90;;;;;;5065790;28;20086;-47
2020/12/03 06:37:00;;;;;;;9.55;5.78;;;4.80;99.90;;;;;;5066126;28;20041;-48
2020/12/03 06:39:44;;;;;;;9.85;6.18;;;4.90;99.90;;;;;;5065827;28;20024;-50
2020/12/03 06:42:32;;;;;;;10.18;6.18;;;4.80;99.90;;;;;;5066550;28;20375;-49
2020/12/03 06:45:00;;;;;;;9.15;5.88;;;4.90;99.90;;;;;;5066521;28;20513;-49
2020/12/03 06:47:47;;;;;;;10.88;6.38;;;5.00;99.90;;;;;;5065823;28;20024;-48
2020/12/03 06:50:31;;;;;;;10.48;6.60;;;5.00;99.90;;;;;;5066386;28;20078;-50
2020/12/03 06:53:38;;;;;;;11.77;7.22;;;5.00;99.90;;;;;;5065975;28;20489;-49
2020/12/03 06:56:13;;;;;;;10.98;6.72;;;5.00;99.90;;;;;;5065432;28;20033;-47
2020/12/03 06:59:09;;;;;;;11.52;6.97;;;5.20;99.90;;;;;;5065984;28;20028;-48
2020/12/03 07:01:52;;;;;;;11.15;6.97;;;5.30;99.90;;;;;;5069853;28;20036;-49
2020/12/03 07:04:49;;;;;;;13.88;8.32;;;4.90;99.90;;;;;;5065974;28;20089;-48
2020/12/03 07:07:20;;;;;;;12.82;7.97;;;4.90;99.90;;;;;;5064553;28;20032;-48
2020/12/03 07:09:58;;;;;;;15.60;8.90;;;4.80;99.90;;;;;;5064226;28;20059;-46
2020/12/03 07:12:42;;;;;;;18.38;10.05;;;5.00;99.90;;;;;;5064506;28;20032;-45
2020/12/03 07:15:32;;;;;;;15.88;9.55;;;5.10;99.90;;;;;;5064254;28;20522;-46
2020/12/03 07:18:41;;;;;;;15.82;9.68;;;5.10;99.90;;;;;;5064941;28;20090;-46
2020/12/03 07:22:02;;;;;;;16.98;9.02;;;5.10;99.90;;;;;;5064377;28;20564;-47
2020/12/03 07:24:34;;;;;;;14.68;8.85;;;5.20;99.90;;;;;;5016716;28;20038;-47
2020/12/03 07:27:09;;;;;;;13.60;7.88;;;5.10;99.90;;;;;;5067844;28;20130;-49
2020/12/03 07:30:04;;;;;;;13.00;8.15;;;5.10;99.90;;;;;;5075154;28;20046;-49
2020/12/03 07:32:48;;;;;;;;;;;5.20;99.90;;;;;;5078049;28;20024;-49
2020/12/03 07:35:38;;;;;;;15.27;8.35;;;5.10;99.90;;;;;;5068574;28;19967;-50
2020/12/03 07:38:10;;;;;;;16.35;8.07;;;5.00;99.90;;;;;;5081077;28;20047;-47
2020/12/03 07:40:36;;;;;;;11.23;6.65;;;5.10;99.90;;;;;;5090693;28;20031;-50
2020/12/03 07:43:33;;;;;;;11.77;6.88;;;5.10;99.90;;;;;;5086838;28;20382;-46
2020/12/03 07:46:00;;;;;;;12.45;7.22;;;5.20;99.90;;;;;;5078247;28;20048;-47
2020/12/03 07:48:31;;;;;;;14.38;8.32;;;5.30;99.90;;;;;;5069698;28;20410;-46
2020/12/03 07:51:03;;;;;;;13.82;8.18;;;5.20;99.90;;;;;;5070657;28;20035;-46
2020/12/03 07:53:30;;;;;;;14.73;8.45;;;5.20;99.90;;;;;;5075970;28;20066;-46
2020/12/03 07:55:57;;;;;;;16.95;9.48;;;5.30;99.90;;;;;;5085887;28;20024;-47
2020/12/03 07:58:32;;;;;;;14.93;8.10;;;5.30;99.90;;;;;;5086078;28;20027;-46
2020/12/03 08:00:58;;;;;;;14.63;8.38;;;5.30;99.90;;;;;;5086401;28;20042;-46
2020/12/03 08:03:39;;;;;;;10.73;6.82;;;5.30;99.90;;;;;;5088567;28;21201;-46
2020/12/03 08:06:11;;;;;;;12.75;7.35;;;5.30;99.90;;;;;;5089597;28;20024;-48
2020/12/03 08:08:38;;;;;;;12.85;7.65;;;5.10;99.90;;;;;;5085380;28;20095;-46
2020/12/03 08:11:25;;;;;;;12.50;7.22;;;5.20;99.90;;;;;;5069382;28;20391;-46
2020/12/03 08:13:57;;;;;;;15.70;8.43;;;5.20;99.90;;;;;;5069714;28;20588;-46
2020/12/03 08:16:43;;;;;;;16.73;9.68;;;5.40;99.90;;;;;;5070144;28;20025;-46
2020/12/03 08:19:17;;;;;;;13.95;8.13;;;5.40;99.90;;;;;;5071033;28;20029;-47
2020/12/03 08:21:43;;;;;;;15.98;9.02;;;5.40;99.90;;;;;;5076075;28;20432;-46
2020/12/03 08:24:23;;;;;;;13.80;8.48;;;5.40;99.90;;;;;;5067408;28;20025;-46
2020/12/03 08:26:56;;;;;;;13.43;8.48;;;5.40;99.90;;;;;;5079967;28;20039;-46
2020/12/03 08:29:33;;;;;;;15.02;8.40;;;5.40;99.90;;;;;;5076470;28;20630;-47
2020/12/03 08:31:59;;;;;;;13.18;7.85;;;5.50;99.90;;;;;;5086264;28;20028;-48
2020/12/03 08:34:34;;;;;;;16.38;9.43;;;5.40;99.90;;;;;;5070886;28;20047;-47
2020/12/03 08:37:00;;;;;;;15.80;8.10;;;5.40;99.90;;;;;;5088628;28;20097;-48
2020/12/03 08:39:26;;;;;;;13.25;8.40;;;5.40;99.90;;;;;;5078753;28;20348;-49
2020/12/03 08:41:53;;;;;;;11.88;7.43;;;5.40;99.90;;;;;;5076942;28;20023;-47
2020/12/03 08:44:20;;;;;;;15.30;8.60;;;5.50;99.90;;;;;;5074343;28;20035;-45
2020/12/03 08:46:46;;;;;;;18.40;8.60;;;5.50;99.90;;;;;;5087426;28;20027;-49
2020/12/03 08:49:19;;;;;;;12.73;7.50;;;5.50;99.90;;;;;;5076819;28;20433;-46
2020/12/03 08:51:52;;;;;;;13.50;8.10;;;5.60;99.90;;;;;;5066998;28;20016;-46
2020/12/03 08:54:29;;;;;;;14.10;8.25;;;5.60;99.90;;;;;;5070802;28;20032;-48
2020/12/03 08:57:03;;;;;;;14.80;8.38;;;5.50;99.90;;;;;;5083727;28;20020;-46
2020/12/03 08:59:42;;;;;;;13.15;8.40;;;5.60;99.90;;;;;;5086946;28;20028;-49
2020/12/03 09:02:09;;;;;;;12.27;7.63;;;5.60;99.90;;;;;;5068548;28;20055;-47
2020/12/03 09:04:37;;;;;;;13.18;7.75;;;5.50;99.90;;;;;;5068084;28;20342;-48
2020/12/03 09:07:09;;;;;;;12.48;7.65;;;5.50;99.90;;;;;;5068426;28;20036;-49
2020/12/03 09:09:37;;;;;;;13.00;7.45;;;5.70;99.90;;;;;;5067730;28;20035;-50
2020/12/03 09:12:06;;;;;;;13.43;8.05;;;5.80;99.90;;;;;;5068804;28;20628;-51
2020/12/03 09:14:35;;;;;;;12.18;7.63;;;5.80;99.90;;;;;;5067943;28;20032;-50
2020/12/03 09:17:09;;;;;;;9.70;5.75;;;5.80;99.90;;;;;;5073354;28;20012;-49
2020/12/03 09:19:35;;;;;;;9.20;5.30;;;5.70;99.90;;;;;;5080530;28;20020;-50
2020/12/03 09:22:03;;;;;;;9.15;5.82;;;5.90;99.90;;;;;;5089092;28;20525;-51
2020/12/03 09:24:28;;;;;;;8.20;5.40;;;6.10;99.90;;;;;;5068776;28;20538;-47
2020/12/03 09:27:01;;;;;;;10.32;5.85;;;6.10;99.90;;;;;;5067841;28;20116;-51
2020/12/03 09:29:27;;;;;;;9.25;5.43;;;6.20;99.90;;;;;;5067855;28;20094;-47
2020/12/03 09:32:00;;;;;;;8.77;5.07;;;6.20;99.90;;;;;;5068220;28;20445;-49
2020/12/03 09:34:29;;;;;;;11.75;7.82;;;6.30;99.90;;;;;;5067600;28;20481;-49
2020/12/03 09:36:57;;;;;;;10.35;6.30;;;6.00;99.90;;;;;;5068139;28;20104;-46
2020/12/03 09:39:24;;;;;;;10.20;6.43;;;6.20;99.90;;;;;;5067845;28;20029;-46
2020/12/03 09:41:50;;;;;;;8.98;5.75;;;6.40;99.90;;;;;;5068074;28;20104;-48
2020/12/03 09:44:16;;;;;;;9.18;5.78;;;6.40;99.90;;;;;;5085103;28;20031;-50
2020/12/03 09:46:47;;;;;;;8.90;5.55;;;6.50;99.90;;;;;;5078539;28;20021;-48
2020/12/03 09:49:16;;;;;;;10.10;6.13;;;6.20;99.90;;;;;;5088255;28;20405;-46
2020/12/03 09:51:43;;;;;;;9.00;6.00;;;6.40;99.90;;;;;;5093030;28;21567;-49
2020/12/03 09:54:10;;;;;;;7.40;4.82;;;6.50;99.90;;;;;;5085970;28;20422;-47
2020/12/03 09:56:37;;;;;;;7.72;5.07;;;6.70;99.90;;;;;;5084789;28;20433;-51
2020/12/03 09:59:04;;;;;;;7.53;4.63;;;6.70;99.90;;;;;;5085266;28;20085;-50
2020/12/03 10:01:57;;;;;;;7.28;4.82;;;6.70;99.90;;;;;;5086733;28;20104;-50
2020/12/03 10:04:26;;;;;;;7.78;5.10;;;6.70;99.90;;;;;;5085907;28;20318;-46
2020/12/03 10:07:36;;;;;;;10.82;5.75;;;6.70;99.90;;;;;;5086600;28;20103;-47
2020/12/03 10:10:07;;;;;;;7.63;5.05;;;6.80;99.90;;;;;;5069580;28;20043;-47
2020/12/03 10:12:54;;;;;;;9.25;5.80;;;6.90;99.90;;;;;;5067896;28;20036;-47
2020/12/03 10:16:04;;;;;;;9.85;6.03;;;7.00;99.90;;;;;;5065325;28;20056;-47
2020/12/03 10:18:43;;;;;;;9.57;6.00;;;7.00;99.90;;;;;;5064268;28;20036;-47
2020/12/03 10:21:09;;;;;;;9.02;5.47;;;7.00;99.90;;;;;;5085436;28;20035;-46
2020/12/03 10:23:50;;;;;;;10.55;5.82;;;7.00;99.90;;;;;;5074259;28;20130;-48
2020/12/03 10:26:23;;;;;;;8.77;5.85;;;7.00;99.90;;;;;;5068426;28;20114;-50
2020/12/03 10:28:54;;;;;;;9.32;5.90;;;7.10;99.90;;;;;;5069554;28;20029;-47
2020/12/03 10:31:21;;;;;;;9.52;6.07;;;7.30;99.90;;;;;;5069096;28;20024;-47
2020/12/03 10:33:51;;;;;;;9.05;5.97;;;7.30;99.90;;;;;;5084896;28;20023;-47
2020/12/03 10:36:29;;;;;;;9.52;5.95;;;7.40;99.90;;;;;;5075556;28;20644;-46
2020/12/03 10:38:58;;;;;;;8.02;5.50;;;7.50;99.90;;;;;;5063977;28;20437;-47
2020/12/03 10:41:36;;;;;;;8.15;5.28;;;7.50;99.90;;;;;;5068882;28;20028;-48
2020/12/03 10:44:02;;;;;;;7.38;5.00;;;7.70;99.90;;;;;;5084711;28;20089;-50
2020/12/03 10:46:31;;;;;;;7.80;4.65;;;7.70;99.90;;;;;;5084282;28;20071;-47
2020/12/03 10:48:59;;;;;;;9.25;5.10;;;7.70;99.90;;;;;;5075298;28;20379;-49
2020/12/03 10:51:25;;;;;;;7.03;4.50;;;7.60;99.90;;;;;;5064021;28;20093;-50
2020/12/03 10:53:53;;;;;;;6.50;4.05;;;7.80;99.90;;;;;;5064484;28;20035;-48
2020/12/03 10:56:26;;;;;;;7.40;4.05;;;7.90;99.90;;;;;;5064276;28;20580;-47
2020/12/03 10:59:11;;;;;;;6.70;4.22;;;8.00;99.90;;;;;;5063066;28;20027;-50
2020/12/03 11:01:37;;;;;;;6.82;4.15;;;8.20;99.90;;;;;;5068422;28;20039;-48
2020/12/03 11:04:09;;;;;;;7.40;4.10;;;8.10;99.90;;;;;;5075213;28;20024;-48
2020/12/03 11:06:35;;;;;;;5.40;3.65;;;8.30;99.90;;;;;;5070781;28;20119;-47
2020/12/03 11:09:03;;;;;;;5.72;3.30;;;8.40;99.90;;;;;;5084508;28;20153;-47
2020/12/03 11:11:37;;;;;;;5.15;3.53;;;8.50;99.90;;;;;;5075124;28;20036;-49
2020/12/03 11:14:13;;;;;;;5.80;3.67;;;8.60;99.90;;;;;;5064501;28;20033;-48
2020/12/03 11:16:51;;;;;;;6.80;3.88;;;8.60;99.90;;;;;;5064088;28;20411;-46
2020/12/03 11:19:18;;;;;;;7.13;4.32;;;8.60;99.90;;;;;;5063952;28;20028;-49
2020/12/03 11:22:02;;;;;;;5.47;3.63;;;8.60;99.90;;;;;;5064044;28;20028;-50
2020/12/03 11:24:43;;;;;;;6.32;4.18;;;8.70;99.90;;;;;;5080121;28;20119;-49
2020/12/03 11:27:10;;;;;;;6.07;4.00;;;8.80;99.90;;;;;;5083670;28;20032;-48
2020/12/03 11:29:36;;;;;;;5.18;3.40;;;8.80;99.90;;;;;;5083967;28;20049;-47
2020/12/03 11:32:03;;;;;;;5.57;3.53;;;8.90;99.90;;;;;;5084811;28;20103;-50
2020/12/03 11:34:39;;;;;;;4.78;3.20;;;9.00;99.90;;;;;;5083778;28;20129;-49
2020/12/03 11:37:08;;;;;;;4.18;2.75;;;9.10;99.90;;;;;;5083196;28;20044;-48
2020/12/03 11:39:33;;;;;;;4.35;2.72;;;9.10;99.90;;;;;;5084388;28;20032;-46
2020/12/03 11:42:29;;;;;;;3.55;2.35;;;9.10;99.90;;;;;;5084381;28;20025;-49
2020/12/03 11:50:37;;;;;;;3.17;2.03;;;9.00;99.90;;;;;;5085641;28;20016;-50
2020/12/03 11:53:04;;;;;;;2.33;1.67;;;8.80;99.90;;;;;;5072066;28;20028;-50
2020/12/03 11:55:30;;;;;;;2.10;1.60;;;8.60;99.90;;;;;;5065986;28;20021;-47
2020/12/03 11:58:07;;;;;;;2.85;1.70;;;8.40;99.90;;;;;;5064846;28;20025;-46
2020/12/03 12:00:33;;;;;;;3.20;1.80;;;8.50;99.90;;;;;;5066137;28;20024;-47
2020/12/03 12:03:04;;;;;;;2.97;2.03;;;8.60;99.90;;;;;;5065394;28;20032;-47
2020/12/03 12:05:46;;;;;;;2.45;1.55;;;8.60;99.90;;;;;;5081310;28;20115;-47
2020/12/03 12:13:19;;;;;;;4.00;2.55;;;8.30;99.90;;;;;;5076820;28;20031;-50
2020/12/03 12:15:44;;;;;;;4.45;2.72;;;8.30;99.90;;;;;;5083469;28;20062;-47
2020/12/03 12:18:11;;;;;;;3.63;2.28;;;8.30;99.90;;;;;;5070689;28;20029;-49
2020/12/03 12:20:39;;;;;;;4.07;2.45;;;8.40;99.90;;;;;;5063440;28;20024;-48
2020/12/03 12:23:04;;;;;;;5.57;3.75;;;8.40;99.90;;;;;;5063223;28;20113;-48
2020/12/03 12:25:31;;;;;;;3.75;2.65;;;8.30;99.90;;;;;;5064049;28;20052;-47
2020/12/03 12:27:57;;;;;;;2.90;2.15;;;8.50;99.90;;;;;;5066794;28;20028;-47
2020/12/03 12:30:22;;;;;;;3.45;2.90;;;8.60;99.90;;;;;;5072098;28;20027;-46
2020/12/03 12:32:48;;;;;;;2.72;2.05;;;8.40;99.90;;;;;;5082029;28;20035;-47
2020/12/03 12:35:14;;;;;;;3.20;2.17;;;8.80;99.90;;;;;;5063070;28;20510;-47
2020/12/03 12:37:40;;;;;;;2.47;1.52;;;8.70;99.90;;;;;;5063222;28;20032;-46
2020/12/03 12:40:06;;;;;;;3.00;2.25;;;8.70;99.90;;;;;;5063146;28;20024;-48
2020/12/03 12:42:32;;;;;;;3.78;2.47;;;8.90;99.90;;;;;;5067296;28;20033;-46
2020/12/03 12:44:58;;;;;;;3.53;2.13;;;9.10;99.90;;;;;;5080177;28;20032;-47
2020/12/03 12:47:25;;;;;;;3.35;2.45;;;9.20;99.90;;;;;;5080437;28;20043;-46
2020/12/03 12:49:51;;;;;;;2.42;1.90;;;9.40;99.90;;;;;;5066678;28;20032;-50
2020/12/03 12:52:16;;;;;;;3.03;2.35;;;9.60;99.90;;;;;;5068699;28;20078;-46
2020/12/03 12:54:43;;;;;;;2.40;1.77;;;9.60;99.90;;;;;;5068672;28;20743;-46
2020/12/03 12:57:08;;;;;;;4.82;3.25;;;9.60;99.90;;;;;;5065575;28;20029;-47
2020/12/03 12:59:34;;;;;;;4.15;3.40;;;9.50;99.90;;;;;;5075192;28;20524;-47
2020/12/03 13:02:00;;;;;;;5.05;3.35;;;9.40;99.90;;;;;;5087355;28;20505;-46
2020/12/03 13:04:26;;;;;;;4.57;3.08;;;9.40;99.90;;;;;;5073872;28;20466;-47
2020/12/03 13:06:54;;;;;;;5.45;3.05;;;9.20;99.90;;;;;;5074616;28;20028;-47
2020/12/03 13:09:21;;;;;;;6.47;3.75;;;9.20;99.90;;;;;;5065485;28;20107;-50
2020/12/03 13:11:48;;;;;;;5.97;3.45;;;9.00;99.90;;;;;;5066265;28;20040;-46
2020/12/03 13:14:14;;;;;;;6.88;4.25;;;9.00;99.90;;;;;;5071086;28;20109;-49
2020/12/03 13:16:40;;;;;;;8.85;5.50;;;8.90;99.90;;;;;;5070197;28;20027;-48
2020/12/03 13:19:08;;;;;;;8.48;5.18;;;8.90;99.90;;;;;;5075129;28;20024;-46
2020/12/03 13:21:34;;;;;;;11.75;5.93;;;8.90;99.90;;;;;;5076433;28;20387;-48
2020/12/03 13:24:01;;;;;;;11.32;5.60;;;8.80;99.90;;;;;;5067774;28;20025;-50
2020/12/03 13:26:27;;;;;;;7.97;4.05;;;8.90;99.90;;;;;;5082456;28;20406;-47
2020/12/03 13:28:53;;;;;;;8.25;4.65;;;9.00;99.90;;;;;;5074051;28;20144;-47